createdAt,value
2018-10-17T00:01:53.194Z,22.60
2018-10-17T00:04:28.853Z,17.63
2018-10-17T00:07:04.508Z,23.00
2018-10-17T00:09:39.755Z,20.60
2018-10-17T00:12:16.446Z,19.20
2018-10-17T00:14:53.079Z,17.83
2018-10-17T00:17:29.433Z,21.50
2018-10-17T00:20:09.890Z,19.33
2018-10-17T00:22:45.658Z,21.37
2018-10-17T00:25:21.465Z,18.37
2018-10-17T00:27:57.473Z,20.97
2018-10-17T00:30:33.396Z,19.50
2018-10-17T00:33:09.443Z,19.03
2018-10-17T00:35:47.069Z,18.60
2018-10-17T00:38:23.294Z,16.97
2018-10-17T00:40:59.479Z,23.03
2018-10-17T00:43:36.970Z,21.80
2018-10-17T00:46:12.383Z,21.43
2018-10-17T00:48:49.838Z,20.53
2018-10-17T00:51:26.339Z,18.43
2018-10-17T00:54:03.299Z,19.80
2018-10-17T00:56:39.093Z,22.67
2018-10-17T00:59:17.005Z,21.07
2018-10-17T01:01:52.767Z,21.67
2018-10-17T01:04:28.408Z,19.87
2018-10-17T01:07:08.580Z,24.70
2018-10-17T01:09:45.981Z,20.30
2018-10-17T01:12:21.792Z,20.53
2018-10-17T01:14:57.685Z,18.13
2018-10-17T01:17:32.931Z,20.43
2018-10-17T01:20:10.935Z,20.30
2018-10-17T01:22:47.461Z,20.73
2018-10-17T01:25:23.683Z,19.80
2018-10-17T01:27:59.379Z,21.43
2018-10-17T01:30:35.393Z,20.23
2018-10-17T01:35:51.343Z,19.47
2018-10-17T01:38:27.100Z,22.83
2018-10-17T01:41:04.993Z,21.27
2018-10-17T01:43:40.525Z,26.20
2018-10-17T01:46:17.523Z,22.93
2018-10-17T01:51:34.342Z,21.93
2018-10-17T01:54:10.569Z,22.50
2018-10-17T01:56:46.356Z,22.20
2018-10-17T01:59:22.520Z,24.23
2018-10-17T02:01:58.259Z,22.00
2018-10-17T02:04:33.894Z,20.77
2018-10-17T02:07:10.249Z,20.87
2018-10-17T02:09:46.354Z,22.43
2018-10-17T02:12:23.108Z,24.03
2018-10-17T02:14:59.074Z,23.00
2018-10-17T02:17:34.343Z,21.97
2018-10-17T02:20:13.609Z,20.80
2018-10-17T02:22:51.244Z,22.00
2018-10-17T02:25:28.354Z,21.30
2018-10-17T02:28:04.272Z,21.27
2018-10-17T02:30:40.413Z,24.33
2018-10-17T02:33:16.928Z,25.50
2018-10-17T02:35:52.614Z,20.43
2018-10-17T02:38:29.189Z,22.00
2018-10-17T02:41:05.807Z,25.80
2018-10-17T02:43:42.380Z,20.63
2018-10-17T02:46:18.247Z,24.83
2018-10-17T02:48:53.667Z,23.80
2018-10-17T02:51:29.649Z,21.33
2018-10-17T02:54:06.182Z,24.37
2018-10-17T02:56:41.207Z,21.57
2018-10-17T02:59:18.022Z,23.13
2018-10-17T03:01:53.444Z,22.60
2018-10-17T03:04:32.111Z,22.83
2018-10-17T03:07:09.047Z,23.10
2018-10-17T03:09:44.584Z,24.27
2018-10-17T03:12:20.988Z,21.87
2018-10-17T03:14:56.758Z,19.40
2018-10-17T03:17:34.798Z,22.93
2018-10-17T03:20:09.858Z,18.57
2018-10-17T03:22:46.766Z,19.33
2018-10-17T03:25:22.962Z,22.37
2018-10-17T03:28:00.970Z,22.70
2018-10-17T03:30:39.565Z,23.23
2018-10-17T03:33:15.933Z,19.17
2018-10-17T03:35:51.919Z,20.70
2018-10-17T03:38:28.236Z,24.43
2018-10-17T03:41:05.076Z,22.13
2018-10-17T03:43:42.821Z,25.50
2018-10-17T03:46:19.415Z,22.10
2018-10-17T03:48:55.602Z,24.13
2018-10-17T03:51:32.049Z,22.10
2018-10-17T03:54:08.705Z,22.97
2018-10-17T03:56:49.357Z,24.43
2018-10-17T03:59:25.551Z,22.33
2018-10-17T04:04:43.763Z,26.37
2018-10-17T04:07:19.941Z,23.57
2018-10-17T04:09:55.795Z,24.43
2018-10-17T04:12:32.059Z,24.27
2018-10-17T04:15:08.177Z,24.73
2018-10-17T04:17:46.491Z,24.77
2018-10-17T04:20:30.075Z,22.90
2018-10-17T04:23:07.314Z,25.00
2018-10-17T04:25:45.440Z,24.90
2018-10-17T04:28:21.228Z,21.60
2018-10-17T04:30:59.443Z,21.60
2018-10-17T04:33:40.490Z,23.87
2018-10-17T04:36:16.260Z,25.73
2018-10-17T04:38:54.244Z,26.10
2018-10-17T04:41:30.461Z,23.07
2018-10-17T04:46:53.082Z,29.67
2018-10-17T04:49:28.371Z,26.43
2018-10-17T04:52:04.561Z,25.60
2018-10-17T04:54:39.205Z,25.23
2018-10-17T04:57:17.440Z,26.40
2018-10-17T04:59:57.347Z,26.53
2018-10-17T05:02:39.503Z,25.37
2018-10-17T05:05:14.585Z,24.33
2018-10-17T05:08:00.476Z,26.00
2018-10-17T05:10:35.897Z,26.13
2018-10-17T05:13:11.195Z,25.77
2018-10-17T05:15:46.998Z,23.33
2018-10-17T05:18:24.040Z,23.93
2018-10-17T05:21:01.406Z,23.47
2018-10-17T05:23:37.014Z,23.80
2018-10-17T05:26:13.887Z,24.50
2018-10-17T05:28:49.358Z,22.37
2018-10-17T05:34:02.076Z,24.87
2018-10-17T05:36:38.148Z,25.20
2018-10-17T05:39:15.050Z,27.50
2018-10-17T05:41:51.090Z,25.87
2018-10-17T05:44:26.661Z,25.87
2018-10-17T05:47:02.270Z,27.57
2018-10-17T05:49:37.164Z,27.70
2018-10-17T05:52:13.344Z,25.27
2018-10-17T05:57:31.785Z,25.07
2018-10-17T06:00:07.873Z,23.87
2018-10-17T06:02:43.997Z,27.90
2018-10-17T06:05:19.849Z,25.13
2018-10-17T06:07:54.722Z,25.90
2018-10-17T06:10:29.922Z,27.37
2018-10-17T06:13:08.113Z,28.60
2018-10-17T06:15:43.411Z,27.27
2018-10-17T06:18:19.042Z,30.10
2018-10-17T06:20:54.558Z,26.33
2018-10-17T06:23:29.614Z,26.60
2018-10-17T06:26:04.763Z,25.20
2018-10-17T06:28:40.064Z,28.13
2018-10-17T06:31:16.549Z,26.20
2018-10-17T06:33:53.615Z,30.87
2018-10-17T06:36:28.619Z,29.80
2018-10-17T06:39:03.692Z,30.73
2018-10-17T06:41:39.997Z,30.90
2018-10-17T06:44:16.578Z,27.73
2018-10-17T06:46:51.452Z,31.47
2018-10-17T06:49:26.254Z,28.63
2018-10-17T06:52:00.689Z,35.40
2018-10-17T06:54:35.499Z,36.03
2018-10-17T06:57:09.970Z,44.53
2018-10-17T06:59:44.521Z,43.17
2018-10-17T07:02:20.398Z,35.17
2018-10-17T07:04:55.114Z,31.10
2018-10-17T07:07:30.163Z,27.00
2018-10-17T07:10:04.693Z,23.63
2018-10-17T07:12:39.909Z,22.53
2018-10-17T07:15:14.502Z,23.80
2018-10-17T07:18:17.601Z,22.57
2018-10-17T07:20:57.641Z,24.47
2018-10-17T07:23:33.463Z,29.03
2018-10-17T07:26:08.039Z,21.80
2018-10-17T07:28:42.622Z,25.87
2018-10-17T07:31:18.807Z,24.50
2018-10-17T07:33:56.030Z,25.13
2018-10-17T07:36:31.071Z,29.27
2018-10-17T07:39:10.437Z,25.87
2018-10-17T07:41:45.535Z,22.80
2018-10-17T07:44:19.982Z,31.30
2018-10-17T07:46:54.857Z,25.63
2018-10-17T07:49:29.268Z,25.50
2018-10-17T07:52:04.174Z,27.20
2018-10-17T07:54:38.755Z,26.20
2018-10-17T07:57:13.706Z,24.03
2018-10-17T07:59:48.343Z,24.03
2018-10-17T08:02:23.174Z,24.37
2018-10-17T08:04:57.977Z,23.63
2018-10-17T08:07:32.608Z,21.13
2018-10-17T08:10:08.481Z,25.33
2018-10-17T08:12:43.346Z,21.63
2018-10-17T08:15:18.362Z,20.03
2018-10-17T08:17:53.208Z,17.73
2018-10-17T08:20:27.593Z,19.97
2018-10-17T08:23:07.701Z,19.03
2018-10-17T08:28:21.860Z,22.63
2018-10-17T08:30:57.913Z,23.43
2018-10-17T08:33:34.105Z,21.50
2018-10-17T08:36:09.076Z,20.73
2018-10-17T08:38:44.075Z,22.50
2018-10-17T08:41:19.478Z,25.20
2018-10-17T08:43:54.504Z,24.90
2018-10-17T08:46:29.600Z,24.40
2018-10-17T08:49:04.505Z,24.17
2018-10-17T08:51:39.421Z,24.13
2018-10-17T08:54:15.620Z,21.97
2018-10-17T08:56:50.534Z,23.47
2018-10-17T08:59:25.133Z,20.13
2018-10-17T09:02:02.140Z,19.70
2018-10-17T09:04:44.942Z,21.13
2018-10-17T09:07:19.601Z,21.70
2018-10-17T09:09:54.251Z,20.33
2018-10-17T09:12:28.901Z,21.50
2018-10-17T09:15:05.359Z,22.57
2018-10-17T09:17:40.045Z,22.70
2018-10-17T09:20:14.901Z,21.80
2018-10-17T09:22:49.365Z,22.17
2018-10-17T09:25:25.470Z,20.10
2018-10-17T09:28:19.252Z,21.43
2018-10-17T09:31:07.914Z,18.70
2018-10-17T09:33:58.319Z,20.67
2018-10-17T09:37:00.761Z,18.97
2018-10-17T09:39:39.823Z,25.63
2018-10-17T09:42:14.641Z,21.07
2018-10-17T09:44:50.382Z,19.50
2018-10-17T09:47:25.267Z,20.73
2018-10-17T09:50:00.152Z,21.07
2018-10-17T09:52:35.183Z,23.37
2018-10-17T09:55:10.419Z,22.87
2018-10-17T09:57:45.314Z,22.50
2018-10-17T10:00:25.224Z,18.73
2018-10-17T10:03:00.360Z,20.73
2018-10-17T10:05:34.909Z,19.70
2018-10-17T10:08:10.716Z,18.73
2018-10-17T10:10:51.327Z,18.00
2018-10-17T10:13:27.105Z,16.77
2018-10-17T10:16:01.963Z,17.73
2018-10-17T10:18:36.888Z,17.73
2018-10-17T10:21:13.565Z,19.63
2018-10-17T10:23:59.408Z,21.83
2018-10-17T10:26:34.291Z,17.63
2018-10-17T10:29:10.255Z,18.63
2018-10-17T10:31:44.886Z,18.30
2018-10-17T10:34:19.761Z,17.20
2018-10-17T10:36:54.802Z,19.43
2018-10-17T10:39:30.619Z,20.33
2018-10-17T10:42:06.432Z,16.83
2018-10-17T10:44:41.148Z,16.03
2018-10-17T10:47:15.989Z,16.97
2018-10-17T10:49:50.659Z,16.57
2018-10-17T10:52:25.519Z,16.00
2018-10-17T10:55:00.318Z,14.90
2018-10-17T10:57:35.007Z,15.63
2018-10-17T11:00:10.309Z,15.40
2018-10-17T11:02:45.169Z,14.23
2018-10-17T11:05:20.315Z,14.97
2018-10-17T11:07:56.552Z,14.23
2018-10-17T11:10:39.026Z,14.53
2018-10-17T11:15:51.932Z,19.00
2018-10-17T11:18:27.175Z,13.90
2018-10-17T11:21:02.410Z,12.43
2018-10-17T11:23:37.599Z,15.50
2018-10-17T11:26:12.981Z,13.67
2018-10-17T11:28:48.598Z,12.97
2018-10-17T11:31:24.789Z,13.00
2018-10-17T11:33:59.801Z,11.93
2018-10-17T11:36:35.461Z,15.73
2018-10-17T11:39:30.723Z,11.73
2018-10-17T11:42:06.625Z,11.37
2018-10-17T11:44:42.720Z,12.27
2018-10-17T11:47:18.432Z,10.37
2018-10-17T11:49:53.281Z,11.33
2018-10-17T11:52:28.769Z,12.93
2018-10-17T11:55:07.869Z,11.20
2018-10-17T11:57:44.522Z,10.73
2018-10-17T12:00:19.629Z,7.93
2018-10-17T12:02:54.328Z,8.20
2018-10-17T12:05:29.359Z,7.27
2018-10-17T12:08:08.681Z,7.30
2018-10-17T12:10:44.024Z,8.53
2018-10-17T12:13:19.137Z,8.70
2018-10-17T12:15:53.939Z,10.73
2018-10-17T12:18:29.001Z,8.30
2018-10-17T12:21:04.049Z,8.93
2018-10-17T12:23:38.693Z,11.13
2018-10-17T12:26:13.418Z,8.37
2018-10-17T12:28:50.255Z,9.17
2018-10-17T12:31:26.027Z,9.53
2018-10-17T12:34:01.136Z,9.33
2018-10-17T12:36:40.883Z,11.43
2018-10-17T12:39:19.298Z,9.73
2018-10-17T12:41:56.894Z,6.63
2018-10-17T12:44:36.698Z,5.87
2018-10-17T12:47:11.373Z,6.23
2018-10-17T12:49:47.240Z,6.20
2018-10-17T12:52:23.491Z,5.83
2018-10-17T12:54:58.047Z,8.40
2018-10-17T12:57:33.174Z,5.80
2018-10-17T13:00:09.445Z,6.53
2018-10-17T13:02:45.063Z,6.17
2018-10-17T13:05:20.665Z,5.80
2018-10-17T13:07:55.054Z,5.90
2018-10-17T13:10:30.174Z,5.20
2018-10-17T13:15:55.816Z,6.07
2018-10-17T13:18:30.684Z,6.80
2018-10-17T13:21:05.517Z,6.43
2018-10-17T13:23:40.127Z,7.47
2018-10-17T13:26:15.320Z,6.67
2018-10-17T13:28:53.387Z,6.80
2018-10-17T13:31:29.432Z,5.83
2018-10-17T13:34:04.437Z,7.37
2018-10-17T13:36:38.964Z,7.37
2018-10-17T13:39:14.319Z,8.83
2018-10-17T13:41:49.783Z,7.10
2018-10-17T13:44:25.490Z,8.67
2018-10-17T13:47:00.881Z,7.23
2018-10-17T13:49:52.399Z,7.40
2018-10-17T13:54:30.094Z,7.93
2018-10-17T13:57:41.286Z,7.83
2018-10-17T14:00:36.313Z,7.80
2018-10-17T14:03:37.142Z,7.07
2018-10-17T14:09:42.842Z,7.00
2018-10-17T14:12:25.549Z,7.03
2018-10-17T14:15:01.233Z,6.60
2018-10-17T14:17:36.560Z,7.27
2018-10-17T14:20:11.780Z,6.80
2018-10-17T14:22:48.046Z,8.33
2018-10-17T14:25:25.030Z,6.90
2018-10-17T14:28:00.901Z,7.30
2018-10-17T14:30:38.166Z,6.43
2018-10-17T14:33:38.212Z,6.40
2018-10-17T14:36:12.989Z,7.07
2018-10-17T14:38:47.758Z,6.57
2018-10-17T14:41:23.827Z,7.97
2018-10-17T14:43:59.566Z,6.57
2018-10-17T14:46:39.635Z,7.37
2018-10-17T14:49:14.676Z,7.80
2018-10-17T14:51:49.335Z,8.90
2018-10-17T14:54:24.287Z,8.27
2018-10-17T15:00:02.550Z,9.90
2018-10-17T15:02:37.537Z,8.13
2018-10-17T15:05:12.842Z,8.53
2018-10-17T15:07:47.588Z,10.60
2018-10-17T15:10:22.420Z,8.20
2018-10-17T15:12:57.915Z,8.60
2018-10-17T15:15:37.238Z,11.77
2018-10-17T15:18:12.211Z,9.80
2018-10-17T15:24:11.051Z,10.27
2018-10-17T15:26:45.889Z,13.70
2018-10-17T15:29:20.852Z,15.50
2018-10-17T15:31:55.533Z,15.43
2018-10-17T15:34:30.224Z,12.10
2018-10-17T15:37:05.714Z,15.67
2018-10-17T15:39:40.425Z,9.43
2018-10-17T15:42:15.522Z,9.83
2018-10-17T15:44:50.373Z,11.17
2018-10-17T15:47:25.219Z,12.03
2018-10-17T15:50:00.173Z,15.27
2018-10-17T15:52:39.569Z,14.67
2018-10-17T15:55:14.780Z,13.67
2018-10-17T15:57:49.878Z,14.17
2018-10-17T16:00:26.648Z,12.47
2018-10-17T16:03:02.089Z,15.17
2018-10-17T16:05:37.190Z,15.37
2018-10-17T16:10:51.928Z,19.17
2018-10-17T16:13:27.121Z,14.00
2018-10-17T16:16:02.656Z,11.97
2018-10-17T16:18:37.682Z,11.30
2018-10-17T16:21:11.993Z,14.77
2018-10-17T16:23:47.059Z,11.93
2018-10-17T16:26:21.803Z,13.43
2018-10-17T16:28:57.138Z,13.67
2018-10-17T16:31:33.939Z,15.40
2018-10-17T16:34:14.207Z,12.13
2018-10-17T16:36:52.152Z,13.10
2018-10-17T16:39:29.509Z,14.30
2018-10-17T16:42:10.733Z,15.70
2018-10-17T16:44:45.390Z,13.73
2018-10-17T16:47:21.438Z,17.87
2018-10-17T16:50:01.782Z,16.77
2018-10-17T16:52:38.037Z,16.43
2018-10-17T16:55:14.303Z,14.30
2018-10-17T16:57:50.196Z,16.60
2018-10-17T17:00:26.004Z,13.67
2018-10-17T17:03:01.065Z,13.60
2018-10-17T17:05:44.167Z,20.13
2018-10-17T17:08:24.023Z,14.60
2018-10-17T17:11:02.364Z,12.10
2018-10-17T17:13:39.331Z,14.13
2018-10-17T17:16:16.483Z,11.53
2018-10-17T17:18:53.438Z,14.40
2018-10-17T17:21:31.857Z,13.03
2018-10-17T17:24:11.976Z,12.30
2018-10-17T17:26:50.468Z,11.87
2018-10-17T17:29:30.205Z,12.10
2018-10-17T17:32:09.803Z,11.87
2018-10-17T17:34:46.961Z,11.60
2018-10-17T17:37:24.519Z,11.73
2018-10-17T17:40:01.121Z,13.10
2018-10-17T17:42:36.256Z,13.63
2018-10-17T17:45:16.771Z,13.57
2018-10-17T17:47:51.805Z,13.33
2018-10-17T17:50:26.890Z,16.60
2018-10-17T17:53:03.408Z,13.80
2018-10-17T17:55:41.258Z,28.63
2018-10-17T17:58:17.428Z,21.13
2018-10-17T18:00:52.180Z,17.63
2018-10-17T18:03:28.025Z,14.57
2018-10-17T18:06:08.642Z,12.47
2018-10-17T18:08:49.505Z,13.03
2018-10-17T18:11:26.289Z,13.87
2018-10-17T18:14:02.671Z,14.33
2018-10-17T18:16:41.996Z,14.97
2018-10-17T18:19:18.575Z,16.00
2018-10-17T18:22:00.990Z,14.47
2018-10-17T18:24:40.553Z,14.80
2018-10-17T18:27:19.141Z,12.40
2018-10-17T18:32:49.020Z,18.83
2018-10-17T18:35:40.905Z,16.10
2018-10-17T18:38:33.016Z,14.83
2018-10-17T18:41:08.484Z,14.03
2018-10-17T18:43:50.100Z,14.07
2018-10-17T18:46:36.287Z,13.50
2018-10-17T18:49:11.275Z,14.77
2018-10-17T18:51:58.050Z,13.53
2018-10-17T18:54:43.681Z,14.93
2018-10-17T18:57:21.966Z,19.27
2018-10-17T19:00:04.114Z,14.60
2018-10-17T19:03:01.810Z,14.93
2018-10-17T19:05:49.401Z,19.43
2018-10-17T19:08:47.130Z,15.50
2018-10-17T19:11:21.617Z,17.13
2018-10-17T19:14:10.280Z,14.63
2018-10-17T19:16:46.160Z,13.83
2018-10-17T19:19:21.389Z,18.93
2018-10-17T19:21:57.967Z,17.60
2018-10-17T19:24:47.110Z,18.63
2018-10-17T19:27:23.689Z,20.53
2018-10-17T19:30:07.898Z,17.40
2018-10-17T19:32:47.344Z,19.53
2018-10-17T19:35:34.910Z,17.70
2018-10-17T19:38:16.112Z,17.43
2018-10-17T19:41:05.489Z,19.90
2018-10-17T19:44:10.467Z,17.73
2018-10-17T19:46:55.829Z,16.03
2018-10-17T19:49:45.257Z,17.97
2018-10-17T19:55:26.213Z,16.23
2018-10-17T19:58:06.320Z,16.37
2018-10-17T20:00:51.589Z,20.20
2018-10-17T20:03:27.523Z,19.30
2018-10-17T20:06:04.326Z,14.73
2018-10-17T20:08:42.429Z,16.97
2018-10-17T20:11:21.649Z,17.17
2018-10-17T20:14:06.747Z,17.73
2018-10-17T20:16:49.469Z,17.07
2018-10-17T20:19:31.683Z,16.57
2018-10-17T20:22:20.852Z,16.90
2018-10-17T20:25:07.182Z,16.40
2018-10-17T20:28:07.081Z,19.17
2018-10-17T20:30:53.047Z,22.87
2018-10-17T20:33:44.260Z,17.03
2018-10-17T20:39:02.656Z,18.43
2018-10-17T20:41:39.159Z,26.17
2018-10-17T20:44:16.710Z,16.77
2018-10-17T20:46:53.360Z,19.67
2018-10-17T20:49:30.397Z,24.83
2018-10-17T20:52:07.293Z,22.47
2018-10-17T20:54:44.712Z,16.50
2018-10-17T20:57:21.575Z,20.60
2018-10-17T21:02:37.140Z,17.90
2018-10-17T21:05:12.578Z,17.90
2018-10-17T21:07:49.272Z,22.67
2018-10-17T21:10:26.643Z,18.53
2018-10-17T21:13:03.748Z,20.17
2018-10-17T21:15:39.348Z,22.10
2018-10-17T21:18:15.732Z,20.50
2018-10-17T21:20:54.194Z,19.33
2018-10-17T21:23:33.828Z,20.63
2018-10-17T21:26:14.619Z,17.17
2018-10-17T21:28:50.454Z,18.60
2018-10-17T21:31:26.410Z,19.30
2018-10-17T21:34:04.126Z,18.00
2018-10-17T21:36:39.314Z,20.37
2018-10-17T21:39:15.444Z,17.50
2018-10-17T21:41:51.014Z,18.40
2018-10-17T21:44:26.727Z,21.27
2018-10-17T21:47:03.738Z,21.03
2018-10-17T21:49:39.682Z,21.93
2018-10-17T21:52:15.114Z,20.60
2018-10-17T21:54:50.601Z,21.60
2018-10-17T21:57:27.578Z,21.07
2018-10-17T22:00:05.135Z,20.43
2018-10-17T22:02:44.294Z,18.53
2018-10-17T22:05:20.949Z,18.70
2018-10-17T22:07:57.695Z,21.67
2018-10-17T22:10:34.281Z,19.33
2018-10-17T22:13:09.699Z,23.33
2018-10-17T22:15:45.450Z,22.53
2018-10-17T22:18:20.796Z,21.63
2018-10-17T22:20:56.663Z,23.17
2018-10-17T22:23:32.925Z,20.33
2018-10-17T22:26:09.523Z,23.83
2018-10-17T22:28:45.127Z,26.43
2018-10-17T22:31:20.395Z,21.13
2018-10-17T22:33:56.840Z,23.23
2018-10-17T22:36:33.387Z,21.93
2018-10-17T22:39:12.721Z,21.93
2018-10-17T22:44:30.467Z,25.43
2018-10-17T22:47:07.155Z,22.90
2018-10-17T22:49:43.087Z,24.67
2018-10-17T22:52:18.630Z,21.83
2018-10-17T22:54:54.422Z,24.13
2018-10-17T22:57:30.934Z,27.50
2018-10-17T23:00:08.265Z,22.27
2018-10-17T23:02:45.518Z,23.10
2018-10-17T23:05:21.485Z,30.17
2018-10-17T23:08:00.399Z,23.97
2018-10-17T23:10:36.559Z,25.13
2018-10-17T23:13:12.557Z,25.13
2018-10-17T23:15:52.425Z,27.80
2018-10-17T23:18:28.544Z,23.70
2018-10-17T23:21:05.757Z,21.80
2018-10-17T23:23:41.753Z,25.97
2018-10-17T23:26:17.837Z,21.40
2018-10-17T23:28:55.007Z,25.07
2018-10-17T23:31:30.947Z,24.30
2018-10-17T23:34:06.841Z,24.90
2018-10-17T23:36:42.699Z,28.43
2018-10-17T23:39:19.277Z,29.03
2018-10-17T23:41:55.287Z,27.87
2018-10-17T23:44:31.846Z,21.90
2018-10-17T23:47:07.722Z,24.60
2018-10-17T23:49:43.490Z,18.50
2018-10-17T23:52:18.882Z,23.77
2018-10-17T23:54:54.659Z,19.70
2018-10-17T23:57:30.547Z,23.50
